sensor_id;sensor_type;location;lat;lon;timestamp;P1;durP1;ratioP1;P2;durP2;ratioP2
15820;SDS011;8011;51.650;7.240;2022-10-26T03:00:57;7.17;;;4.27;;
15820;SDS011;8011;51.650;7.240;2022-10-26T03:03:23;8.17;;;4.67;;
15820;SDS011;8011;51.650;7.240;2022-10-26T03:05:49;7.53;;;4.70;;
15820;SDS011;8011;51.650;7.240;2022-10-26T03:08:15;8.90;;;4.67;;
15820;SDS011;8011;51.650;7.240;2022-10-26T03:10:42;9.20;;;4.90;;
15820;SDS011;8011;51.650;7.240;2022-10-26T03:13:09;7.90;;;4.70;;
15820;SDS011;8011;51.650;7.240;2022-10-26T03:15:36;8.83;;;4.73;;
15820;SDS011;8011;51.650;7.240;2022-10-26T03:18:04;11.77;;;4.50;;
15820;SDS011;8011;51.650;7.240;2022-10-26T03:20:31;9.57;;;4.97;;
15820;SDS011;8011;51.650;7.240;2022-10-26T03:22:56;9.33;;;4.63;;
15820;SDS011;8011;51.650;7.240;2022-10-26T03:25:23;7.73;;;4.20;;
15820;SDS011;8011;51.650;7.240;2022-10-26T03:28:02;7.13;;;4.57;;
15820;SDS011;8011;51.650;7.240;2022-10-26T03:30:28;6.23;;;4.30;;
15820;SDS011;8011;51.650;7.240;2022-10-26T03:32:55;6.67;;;4.37;;
15820;SDS011;8011;51.650;7.240;2022-10-26T03:35:21;7.60;;;4.37;;
15820;SDS011;8011;51.650;7.240;2022-10-26T03:37:47;10.93;;;4.60;;
15820;SDS011;8011;51.650;7.240;2022-10-26T03:40:12;6.50;;;4.53;;
15820;SDS011;8011;51.650;7.240;2022-10-26T03:42:38;6.40;;;4.50;;
15820;SDS011;8011;51.650;7.240;2022-10-26T03:45:05;10.77;;;4.10;;
15820;SDS011;8011;51.650;7.240;2022-10-26T03:47:31;7.27;;;4.90;;
15820;SDS011;8011;51.650;7.240;2022-10-26T03:49:57;6.00;;;4.23;;
15820;SDS011;8011;51.650;7.240;2022-10-26T03:52:23;8.73;;;4.50;;
15820;SDS011;8011;51.650;7.240;2022-10-26T03:54:49;6.67;;;4.27;;
15820;SDS011;8011;51.650;7.240;2022-10-26T03:57:14;7.03;;;3.70;;
15820;SDS011;8011;51.650;7.240;2022-10-26T03:59:40;6.80;;;3.83;;
15820;SDS011;8011;51.650;7.240;2022-10-26T04:02:06;6.93;;;4.00;;
15820;SDS011;8011;51.650;7.240;2022-10-26T04:04:32;5.83;;;3.53;;
15820;SDS011;8011;51.650;7.240;2022-10-26T04:06:57;6.10;;;3.70;;
15820;SDS011;8011;51.650;7.240;2022-10-26T04:09:23;6.47;;;3.97;;
15820;SDS011;8011;51.650;7.240;2022-10-26T04:11:49;6.90;;;3.67;;
15820;SDS011;8011;51.650;7.240;2022-10-26T04:14:14;6.67;;;3.73;;
15820;SDS011;8011;51.650;7.240;2022-10-26T04:16:40;4.07;;;3.27;;
15820;SDS011;8011;51.650;7.240;2022-10-26T04:19:06;5.37;;;3.73;;
15820;SDS011;8011;51.650;7.240;2022-10-26T04:21:31;10.10;;;4.53;;
15820;SDS011;8011;51.650;7.240;2022-10-26T04:23:57;4.73;;;3.67;;
15820;SDS011;8011;51.650;7.240;2022-10-26T04:26:23;6.57;;;3.77;;
15820;SDS011;8011;51.650;7.240;2022-10-26T04:31:55;9.50;;;4.50;;
15820;SDS011;8011;51.650;7.240;2022-10-26T04:34:21;6.17;;;3.53;;
15820;SDS011;8011;51.650;7.240;2022-10-26T04:36:46;4.70;;;3.60;;
15820;SDS011;8011;51.650;7.240;2022-10-26T04:39:12;4.10;;;3.23;;
15820;SDS011;8011;51.650;7.240;2022-10-26T04:41:37;5.93;;;3.50;;
15820;SDS011;8011;51.650;7.240;2022-10-26T04:44:03;8.13;;;4.57;;
15820;SDS011;8011;51.650;7.240;2022-10-26T04:46:29;5.90;;;3.53;;
15820;SDS011;8011;51.650;7.240;2022-10-26T04:48:54;6.50;;;3.73;;
15820;SDS011;8011;51.650;7.240;2022-10-26T04:51:20;7.73;;;3.90;;
15820;SDS011;8011;51.650;7.240;2022-10-26T04:53:46;6.73;;;3.93;;
15820;SDS011;8011;51.650;7.240;2022-10-26T04:56:11;5.47;;;4.03;;
15820;SDS011;8011;51.650;7.240;2022-10-26T04:58:37;6.37;;;4.07;;
15820;SDS011;8011;51.650;7.240;2022-10-26T05:01:02;7.43;;;3.63;;
15820;SDS011;8011;51.650;7.240;2022-10-26T05:03:28;7.67;;;3.90;;
15820;SDS011;8011;51.650;7.240;2022-10-26T05:05:56;6.37;;;4.03;;
15820;SDS011;8011;51.650;7.240;2022-10-26T05:08:23;6.33;;;3.50;;
15820;SDS011;8011;51.650;7.240;2022-10-26T05:10:49;6.23;;;3.83;;
15820;SDS011;8011;51.650;7.240;2022-10-26T05:13:15;5.07;;;3.77;;
15820;SDS011;8011;51.650;7.240;2022-10-26T05:15:41;5.07;;;3.37;;
15820;SDS011;8011;51.650;7.240;2022-10-26T05:18:06;5.80;;;3.80;;
15820;SDS011;8011;51.650;7.240;2022-10-26T05:20:33;6.23;;;3.83;;
15820;SDS011;8011;51.650;7.240;2022-10-26T05:23:01;6.77;;;3.77;;
15820;SDS011;8011;51.650;7.240;2022-10-26T05:25:29;5.03;;;3.57;;
15820;SDS011;8011;51.650;7.240;2022-10-26T05:27:57;8.60;;;3.87;;
15820;SDS011;8011;51.650;7.240;2022-10-26T05:30:23;5.80;;;3.53;;
15820;SDS011;8011;51.650;7.240;2022-10-26T05:32:53;5.37;;;3.80;;
15820;SDS011;8011;51.650;7.240;2022-10-26T05:35:22;6.07;;;3.90;;
15820;SDS011;8011;51.650;7.240;2022-10-26T05:37:49;4.83;;;3.47;;
15820;SDS011;8011;51.650;7.240;2022-10-26T05:40:16;10.80;;;6.00;;
15820;SDS011;8011;51.650;7.240;2022-10-26T05:42:42;8.00;;;3.60;;
15820;SDS011;8011;51.650;7.240;2022-10-26T05:45:08;5.33;;;4.10;;
15820;SDS011;8011;51.650;7.240;2022-10-26T05:47:38;7.00;;;3.70;;
15820;SDS011;8011;51.650;7.240;2022-10-26T05:50:05;8.90;;;3.83;;
15820;SDS011;8011;51.650;7.240;2022-10-26T05:52:41;6.10;;;3.77;;
15820;SDS011;8011;51.650;7.240;2022-10-26T05:55:09;5.87;;;3.53;;
15820;SDS011;8011;51.650;7.240;2022-10-26T05:57:36;6.60;;;4.03;;
15820;SDS011;8011;51.650;7.240;2022-10-26T06:00:06;8.00;;;4.10;;
15820;SDS011;8011;51.650;7.240;2022-10-26T06:02:38;4.93;;;3.47;;
15820;SDS011;8011;51.650;7.240;2022-10-26T06:05:07;6.53;;;4.30;;
15820;SDS011;8011;51.650;7.240;2022-10-26T06:07:35;5.10;;;3.90;;
15820;SDS011;8011;51.650;7.240;2022-10-26T06:10:02;6.23;;;3.80;;
15820;SDS011;8011;51.650;7.240;2022-10-26T06:12:28;5.57;;;3.87;;
15820;SDS011;8011;51.650;7.240;2022-10-26T06:14:54;7.77;;;4.73;;
15820;SDS011;8011;51.650;7.240;2022-10-26T06:24:47;5.17;;;3.43;;
15820;SDS011;8011;51.650;7.240;2022-10-26T06:30:10;9.40;;;3.77;;
15820;SDS011;8011;51.650;7.240;2022-10-26T06:32:36;7.70;;;3.50;;
15820;SDS011;8011;51.650;7.240;2022-10-26T06:37:38;6.03;;;3.50;;
15820;SDS011;8011;51.650;7.240;2022-10-26T06:40:09;4.60;;;3.40;;
15820;SDS011;8011;51.650;7.240;2022-10-26T06:42:37;10.00;;;3.87;;
15820;SDS011;8011;51.650;7.240;2022-10-26T06:45:03;4.47;;;3.40;;
15820;SDS011;8011;51.650;7.240;2022-10-26T06:47:35;7.07;;;3.57;;
15820;SDS011;8011;51.650;7.240;2022-10-26T06:55:40;5.77;;;3.53;;
15820;SDS011;8011;51.650;7.240;2022-10-26T06:58:09;6.70;;;3.47;;
15820;SDS011;8011;51.650;7.240;2022-10-26T07:00:41;6.30;;;3.57;;
15820;SDS011;8011;51.650;7.240;2022-10-26T07:03:08;4.97;;;3.43;;
15820;SDS011;8011;51.650;7.240;2022-10-26T07:05:34;6.53;;;3.93;;
15820;SDS011;8011;51.650;7.240;2022-10-26T07:08:00;9.10;;;5.33;;
15820;SDS011;8011;51.650;7.240;2022-10-26T07:10:25;7.27;;;4.83;;
15820;SDS011;8011;51.650;7.240;2022-10-26T07:12:51;8.77;;;5.30;;
15820;SDS011;8011;51.650;7.240;2022-10-26T07:15:17;9.70;;;5.33;;
15820;SDS011;8011;51.650;7.240;2022-10-26T07:17:46;9.93;;;5.47;;
15820;SDS011;8011;51.650;7.240;2022-10-26T07:20:16;7.30;;;4.10;;
15820;SDS011;8011;51.650;7.240;2022-10-26T07:22:43;7.40;;;4.43;;
15820;SDS011;8011;51.650;7.240;2022-10-26T07:25:09;6.30;;;3.83;;
15820;SDS011;8011;51.650;7.240;2022-10-26T07:27:36;8.47;;;3.90;;
15820;SDS011;8011;51.650;7.240;2022-10-26T07:30:02;7.47;;;3.67;;
15820;SDS011;8011;51.650;7.240;2022-10-26T07:32:28;6.50;;;4.00;;
15820;SDS011;8011;51.650;7.240;2022-10-26T07:34:54;4.13;;;3.57;;
15820;SDS011;8011;51.650;7.240;2022-10-26T07:37:20;4.70;;;3.37;;
15820;SDS011;8011;51.650;7.240;2022-10-26T07:39:46;5.33;;;3.20;;
15820;SDS011;8011;51.650;7.240;2022-10-26T07:42:11;3.70;;;3.03;;
15820;SDS011;8011;51.650;7.240;2022-10-26T07:44:38;6.73;;;3.67;;
15820;SDS011;8011;51.650;7.240;2022-10-26T07:47:04;6.00;;;3.40;;
15820;SDS011;8011;51.650;7.240;2022-10-26T07:49:29;5.33;;;3.50;;
15820;SDS011;8011;51.650;7.240;2022-10-26T07:51:55;5.47;;;3.13;;
15820;SDS011;8011;51.650;7.240;2022-10-26T07:54:21;4.67;;;3.43;;
15820;SDS011;8011;51.650;7.240;2022-10-26T07:56:49;4.37;;;3.00;;
15820;SDS011;8011;51.650;7.240;2022-10-26T07:59:15;4.53;;;2.97;;
15820;SDS011;8011;51.650;7.240;2022-10-26T08:01:42;7.30;;;3.57;;
15820;SDS011;8011;51.650;7.240;2022-10-26T08:04:08;4.40;;;3.33;;
15820;SDS011;8011;51.650;7.240;2022-10-26T08:06:33;8.90;;;3.67;;
15820;SDS011;8011;51.650;7.240;2022-10-26T08:08:59;5.77;;;3.17;;
15820;SDS011;8011;51.650;7.240;2022-10-26T08:11:25;4.90;;;2.97;;
15820;SDS011;8011;51.650;7.240;2022-10-26T08:13:54;5.60;;;3.43;;
15820;SDS011;8011;51.650;7.240;2022-10-26T08:16:20;7.13;;;3.57;;
15820;SDS011;8011;51.650;7.240;2022-10-26T08:18:46;3.80;;;3.13;;
15820;SDS011;8011;51.650;7.240;2022-10-26T08:21:13;5.90;;;3.20;;
15820;SDS011;8011;51.650;7.240;2022-10-26T08:23:39;8.27;;;3.50;;
15820;SDS011;8011;51.650;7.240;2022-10-26T08:26:05;8.13;;;3.90;;
15820;SDS011;8011;51.650;7.240;2022-10-26T08:28:30;7.33;;;4.50;;
15820;SDS011;8011;51.650;7.240;2022-10-26T08:30:56;9.93;;;3.93;;
15820;SDS011;8011;51.650;7.240;2022-10-26T08:33:22;6.07;;;3.73;;
15820;SDS011;8011;51.650;7.240;2022-10-26T08:35:48;7.10;;;3.67;;
15820;SDS011;8011;51.650;7.240;2022-10-26T08:38:23;9.33;;;3.80;;
15820;SDS011;8011;51.650;7.240;2022-10-26T08:40:49;5.30;;;3.80;;
15820;SDS011;8011;51.650;7.240;2022-10-26T08:45:52;5.87;;;3.03;;
15820;SDS011;8011;51.650;7.240;2022-10-26T08:48:38;4.97;;;3.83;;
15820;SDS011;8011;51.650;7.240;2022-10-26T08:51:12;5.57;;;3.47;;
15820;SDS011;8011;51.650;7.240;2022-10-26T08:53:49;3.10;;;2.80;;
15820;SDS011;8011;51.650;7.240;2022-10-26T08:56:39;6.93;;;3.20;;
15820;SDS011;8011;51.650;7.240;2022-10-26T08:59:28;6.43;;;3.80;;
15820;SDS011;8011;51.650;7.240;2022-10-26T09:02:14;6.70;;;3.67;;
15820;SDS011;8011;51.650;7.240;2022-10-26T09:04:41;4.07;;;3.00;;
15820;SDS011;8011;51.650;7.240;2022-10-26T09:07:15;5.70;;;2.77;;
15820;SDS011;8011;51.650;7.240;2022-10-26T09:23:51;3.80;;;1.40;;
15820;SDS011;8011;51.650;7.240;2022-10-26T09:26:37;3.23;;;1.77;;
15820;SDS011;8011;51.650;7.240;2022-10-26T09:29:18;2.40;;;1.30;;
15820;SDS011;8011;51.650;7.240;2022-10-26T09:31:49;1.87;;;1.60;;
15820;SDS011;8011;51.650;7.240;2022-10-26T09:34:17;2.03;;;1.57;;
15820;SDS011;8011;51.650;7.240;2022-10-26T09:36:52;5.43;;;1.70;;
15820;SDS011;8011;51.650;7.240;2022-10-26T09:39:22;3.13;;;1.27;;
15820;SDS011;8011;51.650;7.240;2022-10-26T09:42:17;2.33;;;1.10;;
15820;SDS011;8011;51.650;7.240;2022-10-26T09:44:51;5.77;;;1.30;;
15820;SDS011;8011;51.650;7.240;2022-10-26T09:47:30;1.67;;;1.10;;
15820;SDS011;8011;51.650;7.240;2022-10-26T09:52:30;5.33;;;1.10;;
15820;SDS011;8011;51.650;7.240;2022-10-26T09:54:56;4.60;;;1.10;;
15820;SDS011;8011;51.650;7.240;2022-10-26T09:57:21;2.40;;;1.20;;
15820;SDS011;8011;51.650;7.240;2022-10-26T09:59:48;4.13;;;1.23;;
15820;SDS011;8011;51.650;7.240;2022-10-26T10:08:08;4.57;;;1.40;;
15820;SDS011;8011;51.650;7.240;2022-10-26T10:10:36;4.43;;;1.50;;
15820;SDS011;8011;51.650;7.240;2022-10-26T10:13:15;3.73;;;1.50;;
15820;SDS011;8011;51.650;7.240;2022-10-26T10:15:49;2.97;;;1.50;;
15820;SDS011;8011;51.650;7.240;2022-10-26T10:18:20;2.83;;;1.40;;
15820;SDS011;8011;51.650;7.240;2022-10-26T10:20:54;3.83;;;1.30;;
15820;SDS011;8011;51.650;7.240;2022-10-26T10:26:11;4.73;;;1.30;;
15820;SDS011;8011;51.650;7.240;2022-10-26T10:28:38;3.67;;;1.30;;
15820;SDS011;8011;51.650;7.240;2022-10-26T10:31:19;3.57;;;1.53;;
15820;SDS011;8011;51.650;7.240;2022-10-26T10:33:47;4.67;;;1.47;;
15820;SDS011;8011;51.650;7.240;2022-10-26T10:36:20;5.67;;;1.50;;
15820;SDS011;8011;51.650;7.240;2022-10-26T10:38:51;2.40;;;1.30;;
15820;SDS011;8011;51.650;7.240;2022-10-26T10:44:11;5.30;;;1.30;;
15820;SDS011;8011;51.650;7.240;2022-10-26T10:46:46;5.23;;;1.80;;
15820;SDS011;8011;51.650;7.240;2022-10-26T10:49:22;5.30;;;1.70;;
15820;SDS011;8011;51.650;7.240;2022-10-26T10:51:51;5.97;;;1.67;;
15820;SDS011;8011;51.650;7.240;2022-10-26T10:54:28;4.53;;;1.60;;
15820;SDS011;8011;51.650;7.240;2022-10-26T10:59:43;3.63;;;1.53;;
15820;SDS011;8011;51.650;7.240;2022-10-26T11:08:21;5.60;;;1.60;;
15820;SDS011;8011;51.650;7.240;2022-10-26T11:11:03;5.03;;;1.80;;
15820;SDS011;8011;51.650;7.240;2022-10-26T11:13:56;6.77;;;1.70;;
15820;SDS011;8011;51.650;7.240;2022-10-26T11:21:54;3.43;;;1.40;;
15820;SDS011;8011;51.650;7.240;2022-10-26T11:26:53;5.43;;;2.73;;
15820;SDS011;8011;51.650;7.240;2022-10-26T11:29:28;5.50;;;1.77;;
15820;SDS011;8011;51.650;7.240;2022-10-26T11:32:04;3.27;;;1.60;;
15820;SDS011;8011;51.650;7.240;2022-10-26T11:34:39;3.40;;;1.87;;
15820;SDS011;8011;51.650;7.240;2022-10-26T11:37:13;5.63;;;2.37;;
15820;SDS011;8011;51.650;7.240;2022-10-26T11:39:56;3.63;;;2.30;;
15820;SDS011;8011;51.650;7.240;2022-10-26T11:42:35;11.00;;;3.83;;
15820;SDS011;8011;51.650;7.240;2022-10-26T11:45:08;6.23;;;2.30;;
15820;SDS011;8011;51.650;7.240;2022-10-26T11:47:43;4.80;;;2.17;;
15820;SDS011;8011;51.650;7.240;2022-10-26T11:52:50;4.60;;;2.10;;
15820;SDS011;8011;51.650;7.240;2022-10-26T11:55:21;6.63;;;2.03;;
15820;SDS011;8011;51.650;7.240;2022-10-26T11:57:47;5.73;;;2.30;;
15820;SDS011;8011;51.650;7.240;2022-10-26T12:00:15;5.40;;;2.10;;
15820;SDS011;8011;51.650;7.240;2022-10-26T12:05:51;4.90;;;2.40;;
15820;SDS011;8011;51.650;7.240;2022-10-26T12:08:31;3.73;;;1.90;;
15820;SDS011;8011;51.650;7.240;2022-10-26T12:11:12;5.53;;;2.17;;
15820;SDS011;8011;51.650;7.240;2022-10-26T12:22:11;3.10;;;1.90;;
15820;SDS011;8011;51.650;7.240;2022-10-26T12:24:43;5.40;;;1.97;;
15820;SDS011;8011;51.650;7.240;2022-10-26T12:30:21;3.87;;;1.77;;
15820;SDS011;8011;51.650;7.240;2022-10-26T12:32:51;4.70;;;1.77;;
15820;SDS011;8011;51.650;7.240;2022-10-26T12:38:01;3.03;;;1.60;;
15820;SDS011;8011;51.650;7.240;2022-10-26T12:41:22;3.20;;;1.67;;
15820;SDS011;8011;51.650;7.240;2022-10-26T12:43:45;3.30;;;1.43;;
15820;SDS011;8011;51.650;7.240;2022-10-26T12:48:44;2.87;;;1.60;;
15820;SDS011;8011;51.650;7.240;2022-10-26T13:04:49;2.63;;;1.60;;
15820;SDS011;8011;51.650;7.240;2022-10-26T13:07:48;4.37;;;1.97;;
15820;SDS011;8011;51.650;7.240;2022-10-26T13:10:21;1.77;;;1.30;;
15820;SDS011;8011;51.650;7.240;2022-10-26T13:12:51;4.07;;;1.80;;
15820;SDS011;8011;51.650;7.240;2022-10-26T13:18:17;2.17;;;1.40;;
15820;SDS011;8011;51.650;7.240;2022-10-26T13:23:31;2.77;;;1.00;;
15820;SDS011;8011;51.650;7.240;2022-10-26T13:31:04;3.47;;;1.47;;
15820;SDS011;8011;51.650;7.240;2022-10-26T13:33:36;2.57;;;1.33;;
15820;SDS011;8011;51.650;7.240;2022-10-26T13:36:51;2.70;;;1.43;;
15820;SDS011;8011;51.650;7.240;2022-10-26T13:38:57;4.33;;;2.37;;
15820;SDS011;8011;51.650;7.240;2022-10-26T13:41:35;2.13;;;1.30;;
15820;SDS011;8011;51.650;7.240;2022-10-26T13:44:03;3.57;;;1.30;;
15820;SDS011;8011;51.650;7.240;2022-10-26T13:46:33;3.40;;;1.57;;
15820;SDS011;8011;51.650;7.240;2022-10-26T13:49:37;3.57;;;1.70;;
15820;SDS011;8011;51.650;7.240;2022-10-26T13:51:59;2.70;;;1.10;;
15820;SDS011;8011;51.650;7.240;2022-10-26T13:54:35;4.57;;;1.70;;
15820;SDS011;8011;51.650;7.240;2022-10-26T13:59:37;3.10;;;1.60;;
15820;SDS011;8011;51.650;7.240;2022-10-26T14:04:44;3.20;;;1.70;;
15820;SDS011;8011;51.650;7.240;2022-10-26T14:07:18;2.80;;;1.43;;
15820;SDS011;8011;51.650;7.240;2022-10-26T14:09:56;3.63;;;1.50;;
15820;SDS011;8011;51.650;7.240;2022-10-26T14:12:23;3.27;;;1.30;;
15820;SDS011;8011;51.650;7.240;2022-10-26T14:14:52;4.63;;;1.33;;
15820;SDS011;8011;51.650;7.240;2022-10-26T14:17:24;7.13;;;1.30;;
15820;SDS011;8011;51.650;7.240;2022-10-26T14:19:50;2.43;;;1.40;;
15820;SDS011;8011;51.650;7.240;2022-10-26T14:22:20;2.47;;;1.20;;
15820;SDS011;8011;51.650;7.240;2022-10-26T14:24:52;3.47;;;1.20;;
15820;SDS011;8011;51.650;7.240;2022-10-26T14:27:23;2.03;;;1.20;;
15820;SDS011;8011;51.650;7.240;2022-10-26T14:29:52;2.87;;;1.20;;
15820;SDS011;8011;51.650;7.240;2022-10-26T14:32:19;2.83;;;1.33;;
15820;SDS011;8011;51.650;7.240;2022-10-26T14:34:46;2.10;;;1.40;;
15820;SDS011;8011;51.650;7.240;2022-10-26T14:37:13;2.80;;;1.37;;
15820;SDS011;8011;51.650;7.240;2022-10-26T14:40:03;3.50;;;1.30;;
15820;SDS011;8011;51.650;7.240;2022-10-26T14:42:42;2.73;;;1.20;;
15820;SDS011;8011;51.650;7.240;2022-10-26T14:47:51;3.80;;;1.67;;
15820;SDS011;8011;51.650;7.240;2022-10-26T14:50:19;1.83;;;1.23;;
15820;SDS011;8011;51.650;7.240;2022-10-26T14:52:51;2.30;;;1.07;;
15820;SDS011;8011;51.650;7.240;2022-10-26T14:55:19;2.23;;;1.30;;
15820;SDS011;8011;51.650;7.240;2022-10-26T14:57:46;1.47;;;1.00;;
15820;SDS011;8011;51.650;7.240;2022-10-26T15:00:19;1.77;;;0.90;;
15820;SDS011;8011;51.650;7.240;2022-10-26T15:02:48;3.77;;;1.07;;
15820;SDS011;8011;51.650;7.240;2022-10-26T15:07:56;1.00;;;0.90;;
15820;SDS011;8011;51.650;7.240;2022-10-26T15:15:49;2.97;;;1.00;;
15820;SDS011;8011;51.650;7.240;2022-10-26T15:18:36;6.80;;;1.63;;
15820;SDS011;8011;51.650;7.240;2022-10-26T15:21:02;2.07;;;1.20;;
15820;SDS011;8011;51.650;7.240;2022-10-26T15:23:45;2.80;;;1.50;;
15820;SDS011;8011;51.650;7.240;2022-10-26T15:26:10;2.57;;;1.30;;
15820;SDS011;8011;51.650;7.240;2022-10-26T15:28:38;3.13;;;1.20;;
15820;SDS011;8011;51.650;7.240;2022-10-26T15:33:37;1.83;;;1.13;;
15820;SDS011;8011;51.650;7.240;2022-10-26T15:38:36;2.40;;;1.47;;
15820;SDS011;8011;51.650;7.240;2022-10-26T15:41:02;3.10;;;1.43;;
15820;SDS011;8011;51.650;7.240;2022-10-26T15:43:29;2.60;;;1.40;;
15820;SDS011;8011;51.650;7.240;2022-10-26T15:45:54;5.10;;;1.87;;
15820;SDS011;8011;51.650;7.240;2022-10-26T15:48:27;5.43;;;3.20;;
15820;SDS011;8011;51.650;7.240;2022-10-26T15:50:56;2.87;;;1.63;;
15820;SDS011;8011;51.650;7.240;2022-10-26T15:53:25;2.57;;;1.17;;
15820;SDS011;8011;51.650;7.240;2022-10-26T15:55:52;2.37;;;1.00;;
15820;SDS011;8011;51.650;7.240;2022-10-26T15:58:19;2.70;;;1.17;;
15820;SDS011;8011;51.650;7.240;2022-10-26T16:00:45;2.87;;;1.03;;
15820;SDS011;8011;51.650;7.240;2022-10-26T16:03:12;4.17;;;1.30;;
15820;SDS011;8011;51.650;7.240;2022-10-26T16:05:40;1.93;;;1.13;;
15820;SDS011;8011;51.650;7.240;2022-10-26T16:08:07;2.67;;;1.00;;
15820;SDS011;8011;51.650;7.240;2022-10-26T16:10:36;2.83;;;1.20;;
15820;SDS011;8011;51.650;7.240;2022-10-26T16:13:02;2.43;;;1.13;;
15820;SDS011;8011;51.650;7.240;2022-10-26T16:15:27;2.03;;;1.17;;
15820;SDS011;8011;51.650;7.240;2022-10-26T16:17:53;1.90;;;1.03;;
15820;SDS011;8011;51.650;7.240;2022-10-26T16:20:20;3.53;;;1.83;;
15820;SDS011;8011;51.650;7.240;2022-10-26T16:22:47;1.73;;;0.97;;
15820;SDS011;8011;51.650;7.240;2022-10-26T16:25:15;2.07;;;1.20;;
15820;SDS011;8011;51.650;7.240;2022-10-26T16:27:42;5.83;;;1.27;;
15820;SDS011;8011;51.650;7.240;2022-10-26T16:30:07;2.90;;;1.20;;
15820;SDS011;8011;51.650;7.240;2022-10-26T16:32:34;2.53;;;1.20;;
15820;SDS011;8011;51.650;7.240;2022-10-26T16:35:02;2.43;;;1.20;;
15820;SDS011;8011;51.650;7.240;2022-10-26T16:37:28;2.80;;;1.23;;
15820;SDS011;8011;51.650;7.240;2022-10-26T16:39:55;4.33;;;1.30;;
15820;SDS011;8011;51.650;7.240;2022-10-26T16:42:21;1.67;;;1.10;;
15820;SDS011;8011;51.650;7.240;2022-10-26T16:44:47;2.67;;;1.27;;
15820;SDS011;8011;51.650;7.240;2022-10-26T16:47:12;2.57;;;1.30;;
15820;SDS011;8011;51.650;7.240;2022-10-26T16:49:38;3.73;;;1.57;;
15820;SDS011;8011;51.650;7.240;2022-10-26T16:52:07;2.73;;;1.67;;
15820;SDS011;8011;51.650;7.240;2022-10-26T16:54:33;2.13;;;1.60;;
15820;SDS011;8011;51.650;7.240;2022-10-26T16:56:59;2.70;;;1.40;;
15820;SDS011;8011;51.650;7.240;2022-10-26T16:59:25;4.33;;;2.40;;
15820;SDS011;8011;51.650;7.240;2022-10-26T17:01:50;10.23;;;5.43;;
15820;SDS011;8011;51.650;7.240;2022-10-26T17:04:16;8.30;;;5.40;;
15820;SDS011;8011;51.650;7.240;2022-10-26T17:06:41;9.53;;;5.07;;
15820;SDS011;8011;51.650;7.240;2022-10-26T17:09:07;11.30;;;6.13;;
15820;SDS011;8011;51.650;7.240;2022-10-26T17:11:33;7.93;;;4.37;;
15820;SDS011;8011;51.650;7.240;2022-10-26T17:13:58;7.73;;;2.60;;
15820;SDS011;8011;51.650;7.240;2022-10-26T17:16:24;5.20;;;2.37;;
15820;SDS011;8011;51.650;7.240;2022-10-26T17:18:50;4.13;;;2.03;;
15820;SDS011;8011;51.650;7.240;2022-10-26T17:23:56;3.93;;;2.10;;
15820;SDS011;8011;51.650;7.240;2022-10-26T17:26:22;3.90;;;1.90;;
15820;SDS011;8011;51.650;7.240;2022-10-26T17:28:52;3.17;;;1.50;;
15820;SDS011;8011;51.650;7.240;2022-10-26T17:31:20;4.93;;;1.90;;
15820;SDS011;8011;51.650;7.240;2022-10-26T17:33:46;5.17;;;2.20;;
15820;SDS011;8011;51.650;7.240;2022-10-26T17:36:15;4.57;;;2.00;;
15820;SDS011;8011;51.650;7.240;2022-10-26T17:38:44;5.17;;;2.13;;
15820;SDS011;8011;51.650;7.240;2022-10-26T17:41:12;4.70;;;1.83;;
15820;SDS011;8011;51.650;7.240;2022-10-26T17:43:40;2.73;;;2.00;;
15820;SDS011;8011;51.650;7.240;2022-10-26T17:46:08;3.80;;;1.83;;
15820;SDS011;8011;51.650;7.240;2022-10-26T17:48:35;4.40;;;2.00;;
15820;SDS011;8011;51.650;7.240;2022-10-26T17:51:02;3.57;;;2.33;;
15820;SDS011;8011;51.650;7.240;2022-10-26T17:53:30;2.80;;;1.80;;
15820;SDS011;8011;51.650;7.240;2022-10-26T17:56:15;3.70;;;1.70;;
15820;SDS011;8011;51.650;7.240;2022-10-26T17:58:42;5.57;;;2.57;;
15820;SDS011;8011;51.650;7.240;2022-10-26T18:01:09;4.27;;;2.17;;
15820;SDS011;8011;51.650;7.240;2022-10-26T18:03:37;5.60;;;2.00;;
15820;SDS011;8011;51.650;7.240;2022-10-26T18:06:04;3.60;;;1.90;;
15820;SDS011;8011;51.650;7.240;2022-10-26T18:08:34;3.07;;;1.80;;
15820;SDS011;8011;51.650;7.240;2022-10-26T18:11:01;3.83;;;1.77;;
15820;SDS011;8011;51.650;7.240;2022-10-26T18:13:28;5.23;;;1.60;;
15820;SDS011;8011;51.650;7.240;2022-10-26T18:16:05;3.03;;;2.00;;
15820;SDS011;8011;51.650;7.240;2022-10-26T18:18:33;3.73;;;1.70;;
15820;SDS011;8011;51.650;7.240;2022-10-26T18:21:00;6.50;;;2.70;;
15820;SDS011;8011;51.650;7.240;2022-10-26T18:23:27;5.73;;;2.20;;
15820;SDS011;8011;51.650;7.240;2022-10-26T18:26:26;3.37;;;2.10;;
15820;SDS011;8011;51.650;7.240;2022-10-26T18:28:46;2.30;;;1.53;;
15820;SDS011;8011;51.650;7.240;2022-10-26T18:31:13;4.20;;;1.90;;
15820;SDS011;8011;51.650;7.240;2022-10-26T18:33:40;3.23;;;1.60;;
15820;SDS011;8011;51.650;7.240;2022-10-26T18:38:37;4.67;;;2.07;;
15820;SDS011;8011;51.650;7.240;2022-10-26T18:41:06;4.37;;;2.07;;
15820;SDS011;8011;51.650;7.240;2022-10-26T18:43:38;4.93;;;1.63;;
15820;SDS011;8011;51.650;7.240;2022-10-26T18:46:15;2.90;;;1.80;;
15820;SDS011;8011;51.650;7.240;2022-10-26T18:48:42;4.23;;;1.83;;
15820;SDS011;8011;51.650;7.240;2022-10-26T18:51:09;4.27;;;1.83;;
15820;SDS011;8011;51.650;7.240;2022-10-26T18:53:37;2.87;;;1.80;;
15820;SDS011;8011;51.650;7.240;2022-10-26T18:56:05;6.90;;;2.17;;
15820;SDS011;8011;51.650;7.240;2022-10-26T18:58:36;2.77;;;1.93;;
15820;SDS011;8011;51.650;7.240;2022-10-26T19:01:22;4.13;;;1.83;;
15820;SDS011;8011;51.650;7.240;2022-10-26T19:03:54;4.97;;;1.90;;
15820;SDS011;8011;51.650;7.240;2022-10-26T19:06:22;2.53;;;1.80;;
15820;SDS011;8011;51.650;7.240;2022-10-26T19:08:53;2.17;;;1.87;;
15820;SDS011;8011;51.650;7.240;2022-10-26T19:11:19;4.00;;;2.17;;
15820;SDS011;8011;51.650;7.240;2022-10-26T19:13:46;4.73;;;2.40;;
15820;SDS011;8011;51.650;7.240;2022-10-26T19:16:17;4.70;;;2.57;;
15820;SDS011;8011;51.650;7.240;2022-10-26T19:18:45;3.87;;;2.27;;
15820;SDS011;8011;51.650;7.240;2022-10-26T19:21:12;5.07;;;2.13;;
15820;SDS011;8011;51.650;7.240;2022-10-26T19:23:41;4.00;;;2.10;;
15820;SDS011;8011;51.650;7.240;2022-10-26T19:26:10;4.47;;;2.10;;
15820;SDS011;8011;51.650;7.240;2022-10-26T19:28:38;4.70;;;2.90;;
15820;SDS011;8011;51.650;7.240;2022-10-26T19:31:05;3.47;;;2.20;;
15820;SDS011;8011;51.650;7.240;2022-10-26T19:33:32;4.80;;;2.07;;
15820;SDS011;8011;51.650;7.240;2022-10-26T19:35:59;3.70;;;2.10;;
15820;SDS011;8011;51.650;7.240;2022-10-26T19:38:26;3.40;;;1.80;;
15820;SDS011;8011;51.650;7.240;2022-10-26T19:40:56;4.53;;;2.17;;
15820;SDS011;8011;51.650;7.240;2022-10-26T19:43:24;4.07;;;2.10;;
15820;SDS011;8011;51.650;7.240;2022-10-26T19:45:56;4.93;;;2.07;;
15820;SDS011;8011;51.650;7.240;2022-10-26T19:48:22;3.23;;;2.10;;
15820;SDS011;8011;51.650;7.240;2022-10-26T19:50:49;3.57;;;2.03;;
15820;SDS011;8011;51.650;7.240;2022-10-26T19:53:17;5.07;;;2.50;;
15820;SDS011;8011;51.650;7.240;2022-10-26T19:55:45;2.97;;;1.90;;
15820;SDS011;8011;51.650;7.240;2022-10-26T19:58:11;4.57;;;2.20;;
15820;SDS011;8011;51.650;7.240;2022-10-26T20:00:37;2.90;;;2.20;;
15820;SDS011;8011;51.650;7.240;2022-10-26T20:03:03;4.10;;;2.00;;
15820;SDS011;8011;51.650;7.240;2022-10-26T20:05:29;3.97;;;2.50;;
15820;SDS011;8011;51.650;7.240;2022-10-26T20:07:55;4.73;;;2.90;;
15820;SDS011;8011;51.650;7.240;2022-10-26T20:10:21;3.37;;;2.40;;
15820;SDS011;8011;51.650;7.240;2022-10-26T20:12:47;3.83;;;2.70;;
15820;SDS011;8011;51.650;7.240;2022-10-26T20:15:13;3.60;;;2.90;;
15820;SDS011;8011;51.650;7.240;2022-10-26T20:17:39;4.20;;;3.43;;
15820;SDS011;8011;51.650;7.240;2022-10-26T20:20:04;3.07;;;2.40;;
15820;SDS011;8011;51.650;7.240;2022-10-26T20:22:31;4.03;;;2.83;;
15820;SDS011;8011;51.650;7.240;2022-10-26T20:24:56;3.10;;;2.23;;
15820;SDS011;8011;51.650;7.240;2022-10-26T20:27:22;4.33;;;2.63;;
15820;SDS011;8011;51.650;7.240;2022-10-26T20:29:48;5.70;;;2.50;;
15820;SDS011;8011;51.650;7.240;2022-10-26T20:32:14;5.30;;;2.30;;
15820;SDS011;8011;51.650;7.240;2022-10-26T20:34:40;3.37;;;2.30;;